createdAt,value
2023-05-06T00:01:46.737Z,25.95
2023-05-06T00:06:49.819Z,25.60
2023-05-06T00:11:52.589Z,26.50
2023-05-06T00:16:56.707Z,25.33
2023-05-06T00:22:00.015Z,28.75
2023-05-06T00:27:02.786Z,26.20
2023-05-06T00:32:07.188Z,25.77
2023-05-06T00:37:09.965Z,27.58
2023-05-06T00:42:12.745Z,33.35
2023-05-06T00:47:18.129Z,31.52
2023-05-06T00:52:21.193Z,32.22
2023-05-06T00:57:24.673Z,34.28
2023-05-06T01:02:43.476Z,29.98
2023-05-06T01:07:56.739Z,31.40
2023-05-06T01:13:08.173Z,30.65
2023-05-06T01:18:18.031Z,27.05
2023-05-06T01:23:22.463Z,25.30
2023-05-06T01:28:26.683Z,35.00
2023-05-06T01:33:36.129Z,26.25
2023-05-06T01:38:46.879Z,23.20
2023-05-06T01:43:50.370Z,27.40
2023-05-06T01:48:56.205Z,27.88
2023-05-06T01:54:00.705Z,30.38
2023-05-06T01:59:03.846Z,32.58
2023-05-06T02:04:07.115Z,32.22
2023-05-06T02:09:11.855Z,34.20
2023-05-06T02:14:19.213Z,29.92
2023-05-06T02:19:22.738Z,32.65
2023-05-06T02:24:27.225Z,33.78
2023-05-06T02:29:29.957Z,39.90
2023-05-06T02:34:33.580Z,40.03
2023-05-06T02:39:37.665Z,36.22
2023-05-06T02:44:40.697Z,37.90
2023-05-06T02:49:43.509Z,39.60
2023-05-06T02:54:47.627Z,39.55
2023-05-06T02:59:50.363Z,38.65
2023-05-06T03:04:53.109Z,41.85
2023-05-06T03:09:57.433Z,41.10
2023-05-06T03:15:00.389Z,40.08
2023-05-06T03:20:03.862Z,40.80
2023-05-06T03:25:10.108Z,38.72
2023-05-06T03:30:15.703Z,31.33
2023-05-06T03:35:19.940Z,33.95
2023-05-06T03:40:28.864Z,33.80
2023-05-06T03:45:32.911Z,33.67
2023-05-06T03:50:38.612Z,29.70
2023-05-06T03:55:42.921Z,32.60
2023-05-06T04:00:47.336Z,27.25
2023-05-06T04:05:51.187Z,40.25
2023-05-06T04:11:04.493Z,35.70
2023-05-06T04:16:09.681Z,34.85
2023-05-06T04:21:16.725Z,33.63
2023-05-06T04:26:25.831Z,38.45
2023-05-06T04:36:37.495Z,40.42
2023-05-06T04:41:52.435Z,40.67
2023-05-06T04:47:02.420Z,124.75
2023-05-06T04:52:06.080Z,178.10
2023-05-06T04:57:11.654Z,148.68
2023-05-06T05:02:17.324Z,97.75
2023-05-06T05:07:20.378Z,92.82
2023-05-06T05:12:25.360Z,55.70
2023-05-06T05:17:29.363Z,167.18
2023-05-06T05:22:33.420Z,144.45
2023-05-06T05:27:38.372Z,83.72
2023-05-06T05:32:41.522Z,81.50
2023-05-06T05:37:44.498Z,190.40
2023-05-06T05:42:48.682Z,108.78
2023-05-06T05:47:59.114Z,78.20
2023-05-06T05:53:02.426Z,43.55
2023-05-06T05:58:08.269Z,48.45
2023-05-06T06:03:11.660Z,58.10
2023-05-06T06:08:14.869Z,46.67
2023-05-06T06:13:19.375Z,81.60
2023-05-06T06:18:22.279Z,25.23
2023-05-06T06:23:25.323Z,32.22
2023-05-06T06:28:29.748Z,26.77
2023-05-06T06:33:32.604Z,21.83
2023-05-06T06:38:35.744Z,18.83
2023-05-06T06:43:39.870Z,26.25
2023-05-06T06:48:59.502Z,26.23
2023-05-06T06:54:02.261Z,26.70
2023-05-06T06:59:06.439Z,31.65
2023-05-06T07:04:09.294Z,17.92
2023-05-06T07:09:13.285Z,24.02
2023-05-06T07:14:17.480Z,25.80
2023-05-06T07:19:20.315Z,19.13
2023-05-06T07:24:23.202Z,20.17
2023-05-06T07:29:27.364Z,22.55
2023-05-06T07:34:30.290Z,23.48
2023-05-06T07:39:33.085Z,16.35
2023-05-06T07:44:37.309Z,16.98
2023-05-06T07:49:40.153Z,16.02
2023-05-06T07:54:42.930Z,16.77
2023-05-06T07:59:48.558Z,18.55
2023-05-06T08:04:51.937Z,18.52
2023-05-06T08:09:54.942Z,20.70
2023-05-06T08:14:59.148Z,21.17
2023-05-06T08:20:02.002Z,20.40
2023-05-06T08:25:05.492Z,15.13
2023-05-06T08:30:11.191Z,14.75
2023-05-06T08:35:14.097Z,16.65
2023-05-06T08:40:20.536Z,17.60
2023-05-06T08:45:25.515Z,14.50
2023-05-06T08:50:29.961Z,17.35
2023-05-06T08:55:35.108Z,16.67
2023-05-06T09:00:40.117Z,16.40
2023-05-06T09:05:42.957Z,13.60
2023-05-06T09:10:46.444Z,14.00
2023-05-06T09:15:50.949Z,14.13
2023-05-06T09:20:53.754Z,13.35
2023-05-06T09:25:58.256Z,11.23
2023-05-06T09:31:02.522Z,11.02
2023-05-06T09:36:06.858Z,11.10
2023-05-06T09:41:11.169Z,8.40
2023-05-06T09:46:15.751Z,6.05
2023-05-06T09:51:18.805Z,7.93
2023-05-06T09:56:22.591Z,6.18
2023-05-06T10:01:36.252Z,6.28
2023-05-06T10:06:41.733Z,5.97
2023-05-06T10:11:46.544Z,3.97
2023-05-06T10:16:51.386Z,3.15
2023-05-06T10:21:58.705Z,3.58
2023-05-06T10:27:06.518Z,2.17
2023-05-06T10:32:12.455Z,2.53
2023-05-06T10:37:16.085Z,1.73
2023-05-06T10:42:19.002Z,3.15
2023-05-06T10:47:23.365Z,2.28
2023-05-06T10:52:26.258Z,3.00
2023-05-06T10:57:41.944Z,3.95
2023-05-06T11:02:47.565Z,3.85
2023-05-06T11:07:51.589Z,2.88
2023-05-06T11:12:55.808Z,3.35
2023-05-06T11:18:42.890Z,3.95
2023-05-06T11:24:07.953Z,2.38
2023-05-06T11:29:11.300Z,2.10
2023-05-06T11:34:22.951Z,3.88
2023-05-06T11:39:30.218Z,3.43
2023-05-06T11:44:35.058Z,2.88
2023-05-06T11:49:41.861Z,3.42
2023-05-06T11:54:44.685Z,4.47
2023-05-06T11:59:47.601Z,3.65
2023-05-06T12:04:52.632Z,3.33
2023-05-06T12:09:55.802Z,3.83
2023-05-06T12:14:59.125Z,1.35
2023-05-06T12:20:04.044Z,2.60
2023-05-06T12:25:17.211Z,2.67
2023-05-06T12:30:30.377Z,3.40
2023-05-06T12:35:34.836Z,3.45
2023-05-06T12:40:38.340Z,3.40
2023-05-06T12:45:41.468Z,4.80
2023-05-06T12:50:46.369Z,4.60
2023-05-06T12:55:49.150Z,4.65
2023-05-06T13:00:52.086Z,6.18
2023-05-06T13:05:56.304Z,4.43
2023-05-06T13:11:01.575Z,4.72
2023-05-06T13:16:04.623Z,3.40
2023-05-06T13:21:09.365Z,4.68
2023-05-06T13:26:12.134Z,4.65
2023-05-06T13:31:14.927Z,3.58
2023-05-06T13:36:19.307Z,7.95
2023-05-06T13:41:24.277Z,5.55
2023-05-06T13:46:27.791Z,5.70
2023-05-06T13:51:33.493Z,4.18
2023-05-06T13:56:36.327Z,3.72
2023-05-06T14:01:40.223Z,3.20
2023-05-06T14:06:44.383Z,4.35
2023-05-06T14:11:47.176Z,3.40
2023-05-06T14:16:51.690Z,4.85
2023-05-06T14:21:55.830Z,3.90
2023-05-06T14:26:58.661Z,3.95
2023-05-06T14:32:01.618Z,4.47
2023-05-06T14:37:05.920Z,5.75
2023-05-06T14:42:08.706Z,7.68
2023-05-06T14:47:11.521Z,4.32
2023-05-06T14:52:17.141Z,3.05
2023-05-06T14:57:19.931Z,3.70
2023-05-06T15:02:22.730Z,3.47
2023-05-06T15:07:26.977Z,3.72
2023-05-06T15:12:29.847Z,6.10
2023-05-06T15:17:32.771Z,4.47
2023-05-06T15:22:39.255Z,4.10
2023-05-06T15:27:42.542Z,5.13
2023-05-06T15:32:45.356Z,3.35
2023-05-06T15:37:49.645Z,3.97
2023-05-06T15:42:52.622Z,2.67
2023-05-06T15:47:56.228Z,3.50
2023-05-06T15:53:01.144Z,3.17
2023-05-06T15:58:04.012Z,3.67
2023-05-06T16:03:09.889Z,2.55
2023-05-06T16:08:15.993Z,3.50
2023-05-06T16:13:20.070Z,3.00
2023-05-06T16:18:23.306Z,3.05
2023-05-06T16:23:27.431Z,4.70
2023-05-06T16:28:30.263Z,4.72
2023-05-06T16:33:33.072Z,3.78
2023-05-06T16:38:37.696Z,5.10
2023-05-06T16:43:40.985Z,4.72
2023-05-06T16:48:43.950Z,4.32
2023-05-06T16:53:48.228Z,3.95
2023-05-06T16:58:51.078Z,5.85
2023-05-06T17:03:53.834Z,4.70
2023-05-06T17:08:58.668Z,3.55
2023-05-06T17:14:01.428Z,5.13
2023-05-06T17:19:04.229Z,6.18
2023-05-06T17:24:08.644Z,4.65
2023-05-06T17:29:11.473Z,5.75
2023-05-06T17:34:14.378Z,6.50
2023-05-06T17:39:18.537Z,4.65
2023-05-06T17:44:21.530Z,5.38
2023-05-06T17:49:24.369Z,6.95
2023-05-06T17:54:32.343Z,6.03
2023-05-06T17:59:35.215Z,5.15
2023-05-06T18:04:38.019Z,7.38
2023-05-06T18:09:42.550Z,7.80
2023-05-06T18:14:45.474Z,5.93
2023-05-06T18:19:48.232Z,5.88
2023-05-06T18:24:55.170Z,7.95
2023-05-06T18:29:59.197Z,7.80
2023-05-06T18:35:02.117Z,7.47
2023-05-06T18:40:09.198Z,6.47
2023-05-06T18:45:13.160Z,8.23
2023-05-06T18:50:16.174Z,10.43
2023-05-06T18:55:20.620Z,7.10
2023-05-06T19:00:24.298Z,8.00
2023-05-06T19:05:27.728Z,7.53
2023-05-06T19:10:32.069Z,8.02
2023-05-06T19:15:35.658Z,6.43
2023-05-06T19:20:38.896Z,12.48
2023-05-06T19:25:43.091Z,7.70
2023-05-06T19:30:45.934Z,9.02
2023-05-06T19:35:48.821Z,9.90
2023-05-06T19:40:53.055Z,9.98
2023-05-06T19:45:55.995Z,10.27
2023-05-06T19:50:58.980Z,11.30
2023-05-06T19:56:10.786Z,8.43
2023-05-06T20:01:13.744Z,9.97
2023-05-06T20:06:17.147Z,8.88
2023-05-06T20:11:21.398Z,7.95
2023-05-06T20:16:24.527Z,8.38
2023-05-06T20:21:27.432Z,7.78
2023-05-06T20:26:31.715Z,8.40
2023-05-06T20:31:34.702Z,7.10
2023-05-06T20:36:37.721Z,10.65
2023-05-06T20:41:41.952Z,10.00
2023-05-06T20:46:45.198Z,8.52
2023-05-06T20:51:48.005Z,7.95
2023-05-06T20:56:52.202Z,9.10
2023-05-06T21:01:55.039Z,12.70
2023-05-06T21:06:58.263Z,13.50
2023-05-06T21:12:02.632Z,18.08
2023-05-06T21:17:05.673Z,19.45
2023-05-06T21:22:10.895Z,19.95
2023-05-06T21:27:16.706Z,19.80
2023-05-06T21:32:19.905Z,22.85
2023-05-06T21:37:22.920Z,19.10
2023-05-06T21:42:27.756Z,22.25
2023-05-06T21:47:30.922Z,26.10
2023-05-06T21:52:34.197Z,24.67
2023-05-06T21:57:38.897Z,24.27
2023-05-06T22:02:42.173Z,26.30
2023-05-06T22:07:45.346Z,24.98
2023-05-06T22:12:49.735Z,26.05
2023-05-06T22:17:53.038Z,25.77
2023-05-06T22:22:55.868Z,28.27
2023-05-06T22:27:59.963Z,26.40
2023-05-06T22:33:03.135Z,31.25
2023-05-06T22:38:05.890Z,28.00
2023-05-06T22:43:10.010Z,27.90
2023-05-06T22:48:12.856Z,22.98
2023-05-06T22:53:15.854Z,23.58
2023-05-06T22:58:20.013Z,24.85
2023-05-06T23:03:23.363Z,26.63
2023-05-06T23:08:26.177Z,25.77
2023-05-06T23:13:31.252Z,25.38
2023-05-06T23:18:33.995Z,28.38
2023-05-06T23:23:36.796Z,28.70
2023-05-06T23:28:40.887Z,28.48
2023-05-06T23:33:43.590Z,28.40
2023-05-06T23:38:46.388Z,24.80
2023-05-06T23:43:50.523Z,26.20
2023-05-06T23:48:53.304Z,27.55
2023-05-06T23:53:56.322Z,26.73
2023-05-06T23:59:00.453Z,26.90
